Time;durP1;ratioP1;P1;durP2;ratioP2;P2;SDS_P1;SDS_P2;PMS_P1;PMS_P2;Temp;Humidity;BMP_temperature;BMP_pressure;BME280_temperature;BME280_humidity;BME280_pressure;Samples;Min_cycle;Max_cycle;Signal;HPM_P1;HPM_P2
2023/04/15 00:00:15;;;;;;;6.97;4.05;;;;;;;5.08;100.00;94810.84;1046130;28;20221;-72
2023/04/15 00:00:46;;;;;;;6.43;3.80;;;;;;;5.08;100.00;94810.84;1046293;28;20039;-71
2023/04/15 00:01:18;;;;;;;8.98;4.32;;;;;;;5.08;100.00;94816.81;1044744;28;20731;-70
2023/04/15 00:01:48;;;;;;;6.35;3.88;;;;;;;5.10;100.00;94809.56;1041920;28;20120;-70
2023/04/15 00:02:19;;;;;;;5.75;3.72;;;;;;;5.09;100.00;94807.19;1038010;28;20279;-71
2023/04/15 00:02:49;;;;;;;9.23;4.40;;;;;;;5.07;100.00;94809.28;1033993;28;20018;-71
2023/04/15 00:03:19;;;;;;;6.95;3.95;;;;;;;5.09;100.00;94796.81;1034058;28;20056;-70
2023/04/15 00:03:51;;;;;;;7.35;3.75;;;;;;;5.06;100.00;94799.91;1036333;28;20357;-71
2023/04/15 00:04:21;;;;;;;9.77;3.67;;;;;;;5.09;100.00;94813.19;1033975;28;20026;-71
2023/04/15 00:04:52;;;;;;;5.80;3.55;;;;;;;5.08;100.00;94803.81;1033254;28;20273;-71
2023/04/15 00:05:22;;;;;;;7.60;4.07;;;;;;;5.09;100.00;94804.59;1032815;28;20458;-70
2023/04/15 00:05:53;;;;;;;7.28;4.18;;;;;;;5.08;100.00;94800.44;1034306;28;20048;-71
2023/04/15 00:06:23;;;;;;;13.38;4.32;;;;;;;5.02;100.00;94789.22;1042060;28;20523;-72
2023/04/15 00:06:54;;;;;;;8.95;3.80;;;;;;;5.07;100.00;94804.09;1042428;28;20017;-70
2023/04/15 00:07:24;;;;;;;7.03;3.40;;;;;;;5.02;100.00;94791.03;1042094;28;20036;-72
2023/04/15 00:07:55;;;;;;;6.95;3.70;;;;;;;5.04;100.00;94794.97;1046211;28;20676;-69
2023/04/15 00:08:25;;;;;;;9.18;3.90;;;;;;;5.09;100.00;94804.59;1042415;28;20021;-70
2023/04/15 00:08:56;;;;;;;6.35;3.80;;;;;;;5.02;100.00;94793.66;1042194;28;20048;-71
2023/04/15 00:09:26;;;;;;;7.25;4.00;;;;;;;5.08;100.00;94800.44;1037880;28;20025;-72
2023/04/15 00:09:57;;;;;;;7.28;3.78;;;;;;;5.05;100.00;94800.94;1034125;28;20025;-71
2023/04/15 00:10:27;;;;;;;6.72;3.90;;;;;;;5.04;100.00;94802.75;1036983;28;20025;-72
2023/04/15 00:11:01;;;;;;;6.45;3.75;;;;;;;5.01;100.00;94792.09;1042222;28;20044;-71
2023/04/15 00:11:32;;;;;;;6.80;4.20;;;;;;;5.05;100.00;94795.75;1037971;28;20063;-71
2023/04/15 00:12:03;;;;;;;8.70;4.28;;;;;;;5.03;100.00;94798.59;1035063;28;20766;-72
2023/04/15 00:12:33;;;;;;;7.75;4.28;;;;;;;5.07;100.00;94801.50;1026001;28;20023;-71
2023/04/15 00:13:04;;;;;;;8.13;3.75;;;;;;;5.06;100.00;94802.50;1021949;29;20359;-72
2023/04/15 00:13:34;;;;;;;7.03;3.92;;;;;;;5.07;100.00;94798.88;1029841;28;20034;-71
2023/04/15 00:14:06;;;;;;;7.18;3.88;;;;;;;5.04;100.00;94791.59;1030261;28;20053;-72
2023/04/15 00:14:36;;;;;;;8.52;3.20;;;;;;;5.07;100.00;94799.66;1037656;28;20022;-71
2023/04/15 00:15:08;;;;;;;6.60;3.45;;;;;;;5.07;100.00;94798.88;1037876;28;20284;-72
2023/04/15 00:15:38;;;;;;;6.07;3.47;;;;;;;5.07;100.00;94801.50;1035535;28;20030;-70
2023/04/15 00:16:09;;;;;;;6.57;3.97;;;;;;;5.06;100.00;94794.69;1038445;28;20959;-71
2023/04/15 00:16:40;;;;;;;4.95;3.67;;;;;;;5.05;100.00;94795.75;1041719;28;20025;-70
2023/04/15 00:17:10;;;;;;;5.97;3.60;;;;;;;5.05;100.00;94796.53;1034139;28;20280;-71
2023/04/15 00:17:41;;;;;;;7.05;3.67;;;;;;;4.98;100.00;94788.16;1037971;28;20087;-71
2023/04/15 00:18:11;;;;;;;5.35;3.45;;;;;;;5.03;100.00;94797.81;1045318;28;20028;-70
2023/04/15 00:18:42;;;;;;;8.50;4.10;;;;;;;5.04;100.00;94800.16;1046348;28;20075;-71
2023/04/15 00:19:12;;;;;;;8.32;4.10;;;;;;;5.01;100.00;94792.88;1045227;28;20032;-69
2023/04/15 00:19:44;;;;;;;6.45;3.92;;;;;;;5.02;100.00;94802.22;1041936;28;20032;-70
2023/04/15 00:20:15;;;;;;;5.90;3.67;;;;;;;5.02;100.00;94797.03;1038098;28;20045;-70
2023/04/15 00:20:45;;;;;;;5.72;3.10;;;;;;;5.04;100.00;94794.19;1042546;28;20264;-68
2023/04/15 00:21:16;;;;;;;8.43;3.92;;;;;;;5.03;100.00;94797.81;1045490;28;20040;-70
2023/04/15 00:21:46;;;;;;;6.85;3.22;;;;;;;5.03;100.00;94797.81;1050329;28;20043;-71
2023/04/15 00:22:17;;;;;;;7.38;3.70;;;;;;;5.02;100.00;94798.84;1050250;28;20700;-70
2023/04/15 00:22:47;;;;;;;5.97;3.72;;;;;;;5.01;100.00;94792.88;1041264;28;20032;-70
2023/04/15 00:23:18;;;;;;;6.38;3.40;;;;;;;4.99;100.00;94794.91;1036361;28;20037;-69
2023/04/15 00:23:51;;;;;;;5.22;3.38;;;;;;;5.01;100.00;94794.69;1033705;28;20061;-70
2023/04/15 00:24:22;;;;;;;6.13;4.10;;;;;;;4.99;100.00;94788.94;1030302;28;20034;-70
2023/04/15 00:24:53;;;;;;;6.32;3.50;;;;;;;4.96;100.00;94792.81;1029142;28;20261;-71
2023/04/15 00:25:23;;;;;;;5.97;3.58;;;;;;;4.97;100.00;94791.81;1031650;28;20265;-69
2023/04/15 00:25:54;;;;;;;6.50;3.60;;;;;;;4.96;100.00;94788.44;1033937;28;20041;-70
2023/04/15 00:26:24;;;;;;;6.70;3.38;;;;;;;4.96;100.00;94793.63;1034038;28;20026;-69
2023/04/15 00:26:55;;;;;;;5.25;3.55;;;;;;;4.99;100.00;94792.31;1034117;28;20040;-71
2023/04/15 00:27:25;;;;;;;5.32;3.30;;;;;;;5.01;100.00;94794.69;1030080;28;20030;-70
2023/04/15 00:27:55;;;;;;;6.80;3.65;;;;;;;5.01;100.00;94794.69;1032995;28;20832;-69
2023/04/15 00:28:26;;;;;;;4.78;3.15;;;;;;;4.99;100.00;94796.75;1029975;28;20097;-68
2023/04/15 00:28:57;;;;;;;6.63;3.38;;;;;;;4.99;100.00;94786.34;1030221;28;20042;-70
2023/04/15 00:29:28;;;;;;;6.20;3.40;;;;;;;4.91;100.00;94780.59;1034069;28;20033;-70
2023/04/15 00:29:58;;;;;;;5.85;3.42;;;;;;;4.96;100.00;94791.03;1037835;28;20116;-69
2023/04/15 00:30:30;;;;;;;5.00;3.55;;;;;;;4.94;100.00;94792.31;1037996;28;20912;-70
2023/04/15 00:31:00;;;;;;;8.63;3.88;;;;;;;4.91;100.00;94782.41;1034029;28;20034;-69
2023/04/15 00:31:31;;;;;;;5.05;3.30;;;;;;;4.89;100.00;94787.84;1028291;28;20281;-70
2023/04/15 00:32:01;;;;;;;6.00;3.95;;;;;;;4.80;100.00;94778.97;1030068;28;20460;-71
2023/04/15 00:32:32;;;;;;;8.13;3.75;;;;;;;4.85;100.00;94788.59;1030157;28;20041;-71
2023/04/15 00:33:02;;;;;;;8.32;3.83;;;;;;;4.80;100.00;94781.56;1031014;28;20030;-70
2023/04/15 00:33:33;;;;;;;7.03;3.78;;;;;;;4.78;100.00;94775.81;1033965;28;20642;-70
2023/04/15 00:34:03;;;;;;;5.15;3.53;;;;;;;4.81;100.00;94785.72;1030222;28;20031;-71
2023/04/15 00:34:34;;;;;;;6.35;3.97;;;;;;;4.80;100.00;94789.34;1033526;28;20041;-70
2023/04/15 00:35:05;;;;;;;7.22;3.50;;;;;;;4.81;100.00;94787.53;1041758;28;20044;-70
2023/04/15 00:35:36;;;;;;;4.78;3.60;;;;;;;4.73;100.00;94781.78;1046585;28;20115;-70
2023/04/15 00:36:07;;;;;;;6.72;3.90;;;;;;;4.71;100.00;94783.81;1046324;28;20032;-71
2023/04/15 00:36:38;;;;;;;4.90;3.40;;;;;;;4.70;100.00;94786.69;1045830;28;20770;-69
2023/04/15 00:37:09;;;;;;;5.53;3.70;;;;;;;4.70;100.00;94782.25;1034017;28;20300;-70
2023/04/15 00:37:39;;;;;;;8.75;4.00;;;;;;;4.64;100.00;94774.69;1034265;28;20038;-70
2023/04/15 00:38:10;;;;;;;5.68;3.55;;;;;;;4.66;100.00;94775.19;1036833;28;20272;-70
2023/04/15 00:38:40;;;;;;;4.55;3.38;;;;;;;4.67;100.00;94781.97;1042830;28;20033;-70
2023/04/15 00:39:11;;;;;;;6.78;4.22;;;;;;;4.67;100.00;94785.34;1042955;28;20060;-71
2023/04/15 00:39:41;;;;;;;8.60;3.58;;;;;;;4.66;100.00;94773.41;1043230;28;20029;-70
2023/04/15 00:40:12;;;;;;;4.97;3.45;;;;;;;4.60;100.00;94779.59;1046632;28;20032;-69
2023/04/15 00:40:43;;;;;;;7.45;4.07;;;;;;;4.61;100.00;94772.56;1042864;28;20052;-70
2023/04/15 00:41:13;;;;;;;6.70;3.78;;;;;;;4.61;100.00;94777.78;1034835;28;20507;-71
2023/04/15 00:41:44;;;;;;;6.72;3.90;;;;;;;4.60;100.00;94781.41;1026522;28;20034;-71
2023/04/15 00:42:15;;;;;;;5.93;3.85;;;;;;;4.57;100.00;94780.09;1038900;28;20033;-71
2023/04/15 00:42:45;;;;;;;6.25;3.85;;;;;;;4.54;100.00;94775.38;1034890;28;20272;-70
2023/04/15 00:43:16;;;;;;;8.07;4.28;;;;;;;4.55;100.00;94779.53;1034704;28;20420;-71
2023/04/15 00:43:46;;;;;;;5.43;3.80;;;;;;;4.53;100.00;94779.03;1023002;28;20035;-70
2023/04/15 00:44:17;;;;;;;7.25;4.25;;;;;;;4.54;100.00;94777.19;1034893;28;20089;-70
2023/04/15 00:44:48;;;;;;;6.78;3.75;;;;;;;4.52;100.00;94779.25;1029925;28;20506;-70
2023/04/15 00:45:19;;;;;;;6.25;3.60;;;;;;;4.51;100.00;94775.88;1031345;28;20044;-70
2023/04/15 00:45:50;;;;;;;6.00;3.88;;;;;;;4.52;100.00;94774.06;1030691;28;20818;-70
2023/04/15 00:46:21;;;;;;;6.95;4.10;;;;;;;4.48;100.00;94771.94;1035146;28;20562;-71
2023/04/15 00:46:51;;;;;;;6.50;3.63;;;;;;;4.51;100.00;94780.28;1034567;28;20038;-71
2023/04/15 00:47:22;;;;;;;5.78;3.90;;;;;;;4.43;100.00;94776.34;1035219;28;20038;-70
2023/04/15 00:47:52;;;;;;;10.35;4.18;;;;;;;4.43;100.00;94778.94;1030959;28;20045;-70
2023/04/15 00:48:23;;;;;;;7.25;3.42;;;;;;;4.39;100.00;94770.84;1032135;28;20030;-70
2023/04/15 00:48:54;;;;;;;5.75;4.13;;;;;;;4.39;100.00;94770.84;1026634;28;20408;-71
2023/04/15 00:49:24;;;;;;;8.55;3.78;;;;;;;4.35;100.00;94772.38;1030808;28;20066;-71
2023/04/15 00:49:55;;;;;;;6.28;3.78;;;;;;;4.41;100.00;94776.56;1026705;28;20039;-71
2023/04/15 00:50:25;;;;;;;5.35;3.67;;;;;;;4.39;100.00;94772.66;1026774;28;20283;-71
2023/04/15 00:50:56;;;;;;;6.15;4.22;;;;;;;4.32;100.00;94765.06;1026833;28;20058;-70
2023/04/15 00:51:26;;;;;;;8.32;4.15;;;;;;;4.36;100.00;94776.53;1026845;28;20082;-71
2023/04/15 00:51:57;;;;;;;7.05;4.00;;;;;;;4.36;100.00;94786.94;1030590;28;20049;-70
2023/04/15 00:52:27;;;;;;;6.22;4.05;;;;;;;4.39;100.00;94777.84;1030572;28;20038;-70
2023/04/15 00:52:58;;;;;;;11.13;4.75;;;;;;;4.39;100.00;94780.44;1026488;28;20038;-71
2023/04/15 00:53:28;;;;;;;5.60;3.50;;;;;;;4.39;100.00;94780.44;1030684;28;20026;-71
2023/04/15 00:53:59;;;;;;;8.95;4.20;;;;;;;4.31;100.00;94766.09;1030771;28;20595;-71
2023/04/15 00:54:30;;;;;;;6.82;3.97;;;;;;;4.37;100.00;94780.69;1030027;28;20413;-70
2023/04/15 00:55:01;;;;;;;5.88;3.80;;;;;;;4.37;100.00;94775.50;1034648;28;20053;-70
2023/04/15 00:55:31;;;;;;;6.82;4.82;;;;;;;4.36;100.00;94775.75;1026556;28;20786;-71
2023/04/15 00:56:02;;;;;;;5.70;3.63;;;;;;;4.36;100.00;94776.53;1027106;28;20285;-71
2023/04/15 00:56:39;;;;;;;6.00;4.25;;;;;;;4.36;100.00;94780.94;1030696;28;20678;-71
2023/04/15 00:57:10;;;;;;;6.55;3.88;;;;;;;4.33;100.00;94781.44;1032045;28;20416;-71
2023/04/15 00:57:41;;;;;;;6.40;4.50;;;;;;;4.28;100.00;94776.97;1034633;28;20276;-71
2023/04/15 00:58:11;;;;;;;6.35;4.20;;;;;;;4.28;100.00;94776.97;1035808;28;20044;-71
2023/04/15 00:58:42;;;;;;;7.05;4.53;;;;;;;4.31;100.00;94780.91;1032280;28;20517;-70
2023/04/15 00:59:13;;;;;;;6.38;4.10;;;;;;;4.31;100.00;94791.28;1030595;28;20022;-71
2023/04/15 00:59:43;;;;;;;8.00;4.35;;;;;;;4.30;100.00;94782.72;1018722;29;20027;-71
2023/04/15 01:00:15;;;;;;;5.63;4.07;;;;;;;4.24;100.00;94781.09;1019392;29;20286;-71
2023/04/15 01:00:45;;;;;;;9.85;3.85;;;;;;;4.29;100.00;94781.13;1022874;28;20231;-72
2023/04/15 01:01:20;;;;;;;6.22;4.50;;;;;;;4.23;100.00;94777.72;1021967;28;20266;-69
2023/04/15 01:01:51;;;;;;;7.10;4.10;;;;;;;4.21;100.00;94781.59;1034675;28;20030;-70
2023/04/15 01:02:21;;;;;;;6.60;4.10;;;;;;;4.21;100.00;94771.19;1038875;28;20264;-70
2023/04/15 01:02:52;;;;;;;7.75;4.13;;;;;;;4.26;100.00;94789.44;1034603;28;20038;-70
2023/04/15 01:03:22;;;;;;;7.13;3.83;;;;;;;4.22;100.00;94781.34;1026635;28;20428;-71
2023/04/15 01:03:54;;;;;;;6.30;4.18;;;;;;;4.24;100.00;94783.69;1037446;28;20036;-70
2023/04/15 01:04:25;;;;;;;5.68;4.10;;;;;;;4.23;100.00;94776.94;1042631;28;20142;-71
2023/04/15 01:04:55;;;;;;;9.85;4.32;;;;;;;4.23;100.00;94782.91;1034181;28;20952;-71
2023/04/15 01:05:26;;;;;;;7.32;4.15;;;;;;;4.21;100.00;94781.59;1031726;28;20034;-71
2023/04/15 01:05:57;;;;;;;8.85;4.03;;;;;;;4.22;100.00;94780.56;1030636;28;20057;-71
2023/04/15 01:06:28;;;;;;;6.07;4.10;;;;;;;4.18;100.00;94776.88;1030794;28;20026;-71
2023/04/15 01:06:58;;;;;;;6.45;4.03;;;;;;;4.20;100.00;94783.41;1026560;28;20039;-70
2023/04/15 01:07:29;;;;;;;8.23;4.10;;;;;;;4.13;100.00;94775.03;1026716;28;20083;-71
2023/04/15 01:08:00;;;;;;;8.23;4.43;;;;;;;4.20;100.00;94782.63;1036577;28;20045;-71
2023/04/15 01:08:30;;;;;;;7.65;4.13;;;;;;;4.19;100.00;94776.66;1035281;28;20370;-71
2023/04/15 01:09:01;;;;;;;10.35;4.70;;;;;;;4.18;100.00;94777.66;1038617;28;20025;-70
2023/04/15 01:09:32;;;;;;;9.65;4.63;;;;;;;4.18;100.00;94782.84;1034432;28;20030;-70
2023/04/15 01:10:03;;;;;;;6.20;4.70;;;;;;;4.20;100.00;94785.22;1030649;28;20057;-70
2023/04/15 01:10:34;;;;;;;10.65;4.45;;;;;;;4.18;100.00;94776.88;1028080;28;20278;-70
2023/04/15 01:11:04;;;;;;;7.95;4.32;;;;;;;4.13;100.00;94774.25;1034798;28;20295;-70
2023/04/15 01:11:35;;;;;;;6.70;4.65;;;;;;;4.13;100.00;94776.84;1038733;28;20030;-71
2023/04/15 01:12:05;;;;;;;7.25;4.05;;;;;;;4.13;100.00;94780.22;1038123;28;20644;-70
2023/04/15 01:12:36;;;;;;;8.45;4.43;;;;;;;4.15;100.00;94779.97;1030719;28;20030;-71
2023/04/15 01:13:07;;;;;;;6.80;3.88;;;;;;;4.14;100.00;94781.00;1030489;28;20440;-71
2023/04/15 01:13:37;;;;;;;9.50;4.75;;;;;;;4.11;100.00;94778.91;1030769;28;20090;-70
2023/04/15 01:14:08;;;;;;;10.05;4.13;;;;;;;4.15;100.00;94788.53;1026587;28;20070;-70
2023/04/15 01:14:39;;;;;;;9.55;4.30;;;;;;;4.11;100.00;94782.28;1029986;28;20038;-68
2023/04/15 01:15:09;;;;;;;12.68;4.97;;;;;;;4.08;100.00;94777.56;1030278;28;20261;-72
2023/04/15 01:15:41;;;;;;;7.57;4.28;;;;;;;4.12;100.00;94783.84;1028376;28;20031;-71
2023/04/15 01:16:12;;;;;;;13.38;5.22;;;;;;;4.10;100.00;94782.53;1034474;28;20025;-71
2023/04/15 01:16:44;;;;;;;7.57;4.07;;;;;;;4.10;100.00;94785.13;1038765;28;20264;-71
2023/04/15 01:17:14;;;;;;;11.23;4.60;;;;;;;4.07;100.00;94775.22;1031200;28;20125;-70
2023/04/15 01:17:45;;;;;;;7.30;4.03;;;;;;;4.08;100.00;94782.75;1030509;28;20257;-71
2023/04/15 01:18:15;;;;;;;7.63;4.72;;;;;;;4.11;100.00;94786.69;1033030;28;20037;-70
2023/04/15 01:18:46;;;;;;;8.40;4.55;;;;;;;4.06;100.00;94776.25;1030341;28;20063;-71
2023/04/15 01:19:16;;;;;;;7.53;4.57;;;;;;;4.08;100.00;94782.75;1033967;28;20036;-72
2023/04/15 01:19:47;;;;;;;6.53;4.47;;;;;;;4.07;100.00;94785.63;1034557;28;20639;-71
2023/04/15 01:20:18;;;;;;;8.35;4.30;;;;;;;4.06;100.00;94784.84;1034558;28;20443;-71
2023/04/15 01:20:48;;;;;;;11.85;5.40;;;;;;;4.04;100.00;94786.88;1034618;28;20048;-70
2023/04/15 01:21:19;;;;;;;8.13;4.53;;;;;;;4.03;100.00;94789.72;1041125;28;20045;-72
2023/04/15 01:21:49;;;;;;;8.85;4.20;;;;;;;4.03;100.00;94789.72;1038616;28;20109;-71
2023/04/15 01:22:20;;;;;;;8.38;4.30;;;;;;;4.01;100.00;94782.97;1038637;28;20762;-71
2023/04/15 01:22:50;;;;;;;6.93;4.53;;;;;;;4.00;100.00;94786.59;1041728;28;20025;-71
2023/04/15 01:23:22;;;;;;;10.43;4.53;;;;;;;3.96;100.00;94780.31;1042158;28;20029;-71
2023/04/15 01:23:52;;;;;;;7.28;4.50;;;;;;;3.99;100.00;94782.44;1038546;28;20033;-72
2023/04/15 01:24:22;;;;;;;7.85;4.47;;;;;;;3.86;100.00;94764.66;1034430;28;20287;-71
2023/04/15 01:25:07;;;;;;;7.88;4.53;;;;;;;3.93;100.00;94780.81;1029696;28;20034;-72
2023/04/15 01:25:37;;;;;;;9.50;4.40;;;;;;;3.98;100.00;94783.44;1036505;28;20037;-71
2023/04/15 01:26:08;;;;;;;7.43;4.82;;;;;;;3.97;100.00;94779.28;1038401;28;20276;-70
2023/04/15 01:26:39;;;;;;;8.13;4.53;;;;;;;3.90;100.00;94775.31;1040640;28;20138;-71
2023/04/15 01:27:10;;;;;;;7.60;4.43;;;;;;;3.89;100.00;94774.53;1038678;28;20379;-71
2023/04/15 01:27:41;;;;;;;10.30;4.82;;;;;;;3.93;100.00;94777.44;1030714;28;20026;-70
2023/04/15 01:28:11;;;;;;;8.77;4.53;;;;;;;3.94;100.00;94787.56;1034323;28;20272;-71
2023/04/15 01:28:42;;;;;;;8.77;4.72;;;;;;;3.90;100.00;94775.31;1030541;28;20046;-71
2023/04/15 01:29:12;;;;;;;8.85;4.35;;;;;;;3.92;100.00;94784.44;1034629;28;20026;-71
2023/04/15 01:29:43;;;;;;;6.20;4.22;;;;;;;3.93;100.00;94782.63;1031923;28;20038;-71
2023/04/15 01:30:14;;;;;;;9.45;4.22;;;;;;;3.94;100.00;94784.19;1034462;28;20419;-72
2023/04/15 01:30:44;;;;;;;9.57;4.63;;;;;;;3.91;100.00;94777.66;1030603;28;20065;-70
2023/04/15 01:31:15;;;;;;;10.10;4.78;;;;;;;3.90;100.00;94775.31;1030497;28;20284;-71
2023/04/15 01:31:52;;;;;;;8.88;4.65;;;;;;;3.91;100.00;94776.88;1034873;28;20026;-71
2023/04/15 01:32:23;;;;;;;7.00;4.18;;;;;;;3.85;100.00;94773.44;1034667;28;20087;-71
2023/04/15 01:32:53;;;;;;;8.73;4.80;;;;;;;3.87;100.00;94771.41;1031467;28;20329;-73
2023/04/15 01:33:24;;;;;;;6.68;4.38;;;;;;;3.91;100.00;94776.88;1034501;28;20130;-70
2023/04/15 01:33:54;;;;;;;6.45;4.22;;;;;;;3.84;100.00;94768.50;1034625;28;20056;-70
2023/04/15 01:34:25;;;;;;;6.95;4.82;;;;;;;3.87;100.00;94784.38;1034910;28;20053;-71
2023/04/15 01:34:56;;;;;;;6.28;4.28;;;;;;;3.88;100.00;94782.56;1036251;28;20088;-70
2023/04/15 01:35:27;;;;;;;8.32;4.55;;;;;;;3.80;100.00;94768.22;1038841;28;20318;-72
2023/04/15 01:35:57;;;;;;;7.70;4.35;;;;;;;3.82;100.00;94771.34;1034969;28;20029;-70
2023/04/15 01:36:28;;;;;;;6.95;4.50;;;;;;;3.82;100.00;94771.34;1034601;28;20037;-70
2023/04/15 01:36:59;;;;;;;6.28;4.10;;;;;;;3.85;100.00;94778.63;1030296;28;20085;-71
2023/04/15 01:37:29;;;;;;;8.30;4.47;;;;;;;3.81;100.00;94767.19;1026802;28;20345;-72
2023/04/15 01:38:07;;;;;;;8.90;4.13;;;;;;;3.85;100.00;94768.25;1034735;28;20034;-71
2023/04/15 01:38:38;;;;;;;8.43;4.40;;;;;;;3.85;100.00;94768.25;1038752;28;20530;-70
2023/04/15 01:39:08;;;;;;;10.27;5.03;;;;;;;3.85;100.00;94773.44;1039775;28;20378;-71
2023/04/15 01:39:39;;;;;;;8.77;4.38;;;;;;;3.86;100.00;94769.84;1042607;28;20033;-70
2023/04/15 01:40:10;;;;;;;7.78;4.40;;;;;;;3.79;100.00;94758.88;1042501;28;20584;-72
2023/04/15 01:40:40;;;;;;;7.28;4.15;;;;;;;3.83;100.00;94766.97;1034467;28;20033;-70
2023/04/15 01:41:11;;;;;;;7.18;4.70;;;;;;;3.85;100.00;94776.03;1038581;28;20037;-71
2023/04/15 01:41:41;;;;;;;7.00;4.53;;;;;;;3.84;100.00;94768.50;1030115;28;20026;-72
2023/04/15 01:42:11;;;;;;;7.70;4.40;;;;;;;3.85;100.00;94773.44;1026687;28;20127;-71
2023/04/15 01:42:42;;;;;;;9.73;4.30;;;;;;;3.85;100.00;94773.44;1034417;28;20025;-71
2023/04/15 01:43:12;;;;;;;7.95;4.55;;;;;;;3.85;100.00;94778.63;1031124;28;20030;-71
2023/04/15 01:43:43;;;;;;;5.90;3.85;;;;;;;3.85;100.00;94776.03;1042585;28;20028;-71
2023/04/15 01:44:14;;;;;;;5.47;3.92;;;;;;;3.85;100.00;94770.06;1038999;28;20029;-71
2023/04/15 01:44:44;;;;;;;9.88;4.20;;;;;;;3.83;100.00;94767.72;1037886;28;20033;-71
2023/04/15 01:45:15;;;;;;;10.07;4.32;;;;;;;3.81;100.00;94764.59;1038296;28;20083;-71
2023/04/15 01:45:45;;;;;;;6.05;4.13;;;;;;;3.81;100.00;94762.00;1042747;28;20509;-70
2023/04/15 01:46:16;;;;;;;8.80;4.20;;;;;;;3.85;100.00;94767.47;1038632;28;20268;-71
2023/04/15 01:46:47;;;;;;;6.25;4.07;;;;;;;3.85;100.00;94768.25;1044571;28;20028;-71
2023/04/15 01:47:17;;;;;;;6.72;4.40;;;;;;;3.86;100.00;94767.25;1042308;28;20029;-71
2023/04/15 01:47:48;;;;;;;7.78;4.32;;;;;;;3.82;100.00;94762.78;1034621;28;20057;-71
2023/04/15 01:48:18;;;;;;;6.00;4.25;;;;;;;3.86;100.00;94769.06;1034404;28;20030;-71
2023/04/15 01:48:49;;;;;;;6.15;4.20;;;;;;;3.86;100.00;94769.84;1030381;28;20034;-71
2023/04/15 01:49:19;;;;;;;6.85;4.13;;;;;;;3.86;100.00;94763.88;1034432;28;20037;-71
2023/04/15 01:49:50;;;;;;;10.23;4.45;;;;;;;3.87;100.00;94765.44;1034225;28;20431;-70
2023/04/15 01:50:20;;;;;;;7.78;4.07;;;;;;;3.88;100.00;94772.97;1038662;28;20029;-71
2023/04/15 01:50:52;;;;;;;10.95;4.30;;;;;;;3.83;100.00;94761.75;1042725;28;20025;-69
2023/04/15 01:51:22;;;;;;;5.70;3.70;;;;;;;3.87;100.00;94771.41;1042664;28;20498;-71
2023/04/15 01:51:53;;;;;;;7.43;4.03;;;;;;;3.89;100.00;94771.94;1038140;28;20303;-71
2023/04/15 01:52:24;;;;;;;7.50;4.28;;;;;;;3.88;100.00;94767.00;1034632;28;20119;-71
2023/04/15 01:52:54;;;;;;;9.70;4.65;;;;;;;3.89;100.00;94771.94;1030633;28;20042;-71
2023/04/15 01:53:24;;;;;;;8.20;4.45;;;;;;;3.87;100.00;94761.03;1039148;28;20034;-71
2023/04/15 01:53:58;;;;;;;14.00;4.57;;;;;;;3.90;100.00;94770.13;1034544;28;20028;-71
2023/04/15 01:54:28;;;;;;;11.77;4.78;;;;;;;3.91;100.00;94771.69;1033949;28;20022;-70
2023/04/15 01:54:59;;;;;;;7.93;4.30;;;;;;;3.91;100.00;94776.88;1026204;28;20282;-71
2023/04/15 01:55:29;;;;;;;9.55;4.18;;;;;;;3.91;100.00;94772.47;1034627;28;20037;-71
2023/04/15 01:56:00;;;;;;;6.50;3.97;;;;;;;3.89;100.00;94773.75;1038656;28;20033;-70
2023/04/15 01:56:30;;;;;;;8.80;4.53;;;;;;;3.87;100.00;94765.44;1046889;28;20383;-71
2023/04/15 01:57:01;;;;;;;9.27;4.15;;;;;;;3.89;100.00;94777.16;1044185;28;20028;-71
2023/04/15 01:57:31;;;;;;;6.72;4.28;;;;;;;3.89;100.00;94774.53;1038411;28;20041;-71
2023/04/15 01:58:02;;;;;;;5.30;3.90;;;;;;;3.85;100.00;94768.25;1042470;28;20052;-71
2023/04/15 01:58:32;;;;;;;7.97;4.10;;;;;;;3.90;100.00;94775.31;1038497;28;20025;-71
2023/04/15 01:59:03;;;;;;;7.20;4.00;;;;;;;3.90;100.00;94775.31;1038762;28;20056;-71
2023/04/15 01:59:33;;;;;;;7.75;3.90;;;;;;;3.91;100.00;94775.06;1042392;28;20028;-71
2023/04/15 02:00:06;;;;;;;5.70;4.10;;;;;;;3.89;100.00;94773.75;1034345;28;20029;-72
2023/04/15 02:00:36;;;;;;;6.57;3.95;;;;;;;3.93;100.00;94774.84;1034613;28;20033;-71
2023/04/15 02:01:09;;;;;;;6.70;3.80;;;;;;;3.88;100.00;94767.78;1037606;28;20762;-70
2023/04/15 02:01:39;;;;;;;7.28;3.70;;;;;;;3.92;100.00;94774.06;1035056;28;20026;-70
2023/04/15 02:02:10;;;;;;;8.38;3.45;;;;;;;3.88;100.00;94772.97;1038983;28;20920;-71
2023/04/15 02:02:40;;;;;;;6.20;4.05;;;;;;;3.89;100.00;94773.75;1038531;28;20029;-71
2023/04/15 02:03:11;;;;;;;5.22;3.65;;;;;;;3.91;100.00;94772.47;1034509;28;20030;-71
2023/04/15 02:03:41;;;;;;;6.38;3.88;;;;;;;3.86;100.00;94769.84;1034315;28;20129;-71
2023/04/15 02:04:18;;;;;;;6.28;3.80;;;;;;;3.94;100.00;94772.00;1038656;28;20025;-71
2023/04/15 02:04:49;;;;;;;8.02;3.75;;;;;;;3.94;100.00;94777.19;1042783;28;20485;-70
2023/04/15 02:05:19;;;;;;;7.65;4.05;;;;;;;3.94;100.00;94768.63;1043260;28;21016;-71
2023/04/15 02:05:50;;;;;;;5.25;3.63;;;;;;;3.95;100.00;94775.38;1045651;28;20275;-71
2023/04/15 02:06:20;;;;;;;8.27;3.85;;;;;;;3.95;100.00;94772.78;1038311;28;20570;-71
2023/04/15 02:06:51;;;;;;;7.07;3.70;;;;;;;3.96;100.00;94775.13;1038503;28;20026;-72
2023/04/15 02:07:21;;;;;;;8.82;3.47;;;;;;;3.95;100.00;94776.16;1037901;28;20574;-71
2023/04/15 02:07:52;;;;;;;9.23;4.00;;;;;;;3.96;100.00;94772.53;1038404;28;20321;-71
2023/04/15 02:08:23;;;;;;;5.78;3.67;;;;;;;3.95;100.00;94770.16;1034437;28;20025;-72
2023/04/15 02:08:53;;;;;;;6.40;3.90;;;;;;;3.97;100.00;94775.91;1034484;28;20460;-71
2023/04/15 02:09:23;;;;;;;7.43;3.53;;;;;;;3.97;100.00;94775.91;1038550;28;20021;-70
2023/04/15 02:09:54;;;;;;;5.60;3.45;;;;;;;3.96;100.00;94774.34;1038628;28;20091;-70
2023/04/15 02:10:25;;;;;;;6.53;4.00;;;;;;;3.96;100.00;94769.94;1043188;28;20917;-71
2023/04/15 02:10:55;;;;;;;6.32;3.47;;;;;;;3.96;100.00;94769.94;1046741;28;20040;-71
2023/04/15 02:11:26;;;;;;;5.90;3.65;;;;;;;3.96;100.00;94767.34;1042396;28;20021;-72
2023/04/15 02:11:56;;;;;;;5.30;3.45;;;;;;;3.96;100.00;94772.53;1038433;28;20131;-71
2023/04/15 02:12:27;;;;;;;6.40;3.85;;;;;;;3.97;100.00;94773.31;1038368;28;20022;-71
2023/04/15 02:12:57;;;;;;;7.72;3.63;;;;;;;3.98;100.00;94767.88;1034409;28;20038;-72
2023/04/15 02:13:27;;;;;;;5.93;3.72;;;;;;;4.00;100.00;94773.63;1038589;28;20029;-71
2023/04/15 02:13:58;;;;;;;5.95;3.42;;;;;;;3.99;100.00;94782.44;1040422;28;20037;-71
2023/04/15 02:14:28;;;;;;;6.22;4.13;;;;;;;4.00;100.00;94773.63;1037964;28;20470;-70
2023/04/15 02:14:59;;;;;;;6.80;4.00;;;;;;;4.00;100.00;94765.81;1042475;28;20033;-71
2023/04/15 02:15:29;;;;;;;6.15;3.50;;;;;;;4.00;100.00;94771.00;1042113;28;20538;-71
2023/04/15 02:16:00;;;;;;;5.22;3.47;;;;;;;3.94;100.00;94759.00;1034460;28;20026;-71
2023/04/15 02:16:31;;;;;;;5.07;3.42;;;;;;;3.96;100.00;94761.38;1034337;28;20767;-70
2023/04/15 02:17:06;;;;;;;5.57;3.70;;;;;;;4.01;100.00;94772.56;1034340;28;20026;-71
2023/04/15 02:17:36;;;;;;;7.88;3.92;;;;;;;3.98;100.00;94767.09;1035735;28;20042;-70
2023/04/15 02:18:07;;;;;;;5.60;3.92;;;;;;;4.03;100.00;94771.56;1037669;28;20351;-70
2023/04/15 02:18:37;;;;;;;5.93;3.40;;;;;;;4.03;100.00;94777.53;1041857;28;20025;-71
2023/04/15 02:19:08;;;;;;;10.10;3.80;;;;;;;3.99;100.00;94769.47;1038241;28;20636;-71
2023/04/15 02:19:39;;;;;;;6.60;3.50;;;;;;;4.01;100.00;94771.78;1034436;28;20030;-71
2023/04/15 02:20:10;;;;;;;7.22;3.78;;;;;;;4.03;100.00;94774.94;1037729;28;20040;-70
2023/04/15 02:20:42;;;;;;;5.55;3.30;;;;;;;4.02;100.00;94773.34;1037706;28;20278;-71
2023/04/15 02:21:13;;;;;;;7.80;3.70;;;;;;;4.04;100.00;94773.13;1038493;28;20148;-72
2023/04/15 02:21:43;;;;;;;9.30;3.75;;;;;;;4.05;100.00;94772.09;1042657;28;20272;-71
2023/04/15 02:22:17;;;;;;;7.80;4.07;;;;;;;4.05;100.00;94772.09;1043295;28;20060;-72
2023/04/15 02:22:47;;;;;;;5.80;3.40;;;;;;;3.96;100.00;94769.94;1034413;28;20048;-72
2023/04/15 02:23:18;;;;;;;5.20;3.55;;;;;;;4.04;100.00;94775.72;1038699;28;20268;-70
2023/04/15 02:23:48;;;;;;;6.65;3.65;;;;;;;4.00;100.00;94768.41;1043416;28;20665;-70
2023/04/15 02:24:20;;;;;;;6.43;3.28;;;;;;;4.08;100.00;94776.78;1039762;28;20056;-71
2023/04/15 02:24:50;;;;;;;7.82;4.53;;;;;;;4.07;100.00;94775.22;1038982;28;20064;-71